sensor_id;sensor_type;location;lat;lon;timestamp;P1;durP1;ratioP1;P2;durP2;ratioP2
8488;SDS011;4281;45.772;12.852;2023-05-13T00:00:22;1.93;;;1.83;;
8488;SDS011;4281;45.772;12.852;2023-05-13T00:02:51;2.50;;;2.13;;
8488;SDS011;4281;45.772;12.852;2023-05-13T00:05:19;2.20;;;2.00;;
8488;SDS011;4281;45.772;12.852;2023-05-13T00:07:47;2.30;;;2.10;;
8488;SDS011;4281;45.772;12.852;2023-05-13T00:10:16;2.30;;;2.10;;
8488;SDS011;4281;45.772;12.852;2023-05-13T00:12:46;2.50;;;2.10;;
8488;SDS011;4281;45.772;12.852;2023-05-13T00:15:13;2.30;;;1.90;;
8488;SDS011;4281;45.772;12.852;2023-05-13T00:17:41;2.57;;;1.90;;
8488;SDS011;4281;45.772;12.852;2023-05-13T00:20:11;1.90;;;1.70;;
8488;SDS011;4281;45.772;12.852;2023-05-13T00:22:39;2.10;;;1.90;;
8488;SDS011;4281;45.772;12.852;2023-05-13T00:25:07;1.90;;;1.67;;
8488;SDS011;4281;45.772;12.852;2023-05-13T00:27:37;2.07;;;1.87;;
8488;SDS011;4281;45.772;12.852;2023-05-13T00:30:06;2.93;;;1.90;;
8488;SDS011;4281;45.772;12.852;2023-05-13T00:32:34;2.20;;;2.00;;
8488;SDS011;4281;45.772;12.852;2023-05-13T00:35:03;2.47;;;2.00;;
8488;SDS011;4281;45.772;12.852;2023-05-13T00:37:32;2.53;;;2.10;;
8488;SDS011;4281;45.772;12.852;2023-05-13T00:40:00;2.23;;;2.03;;
8488;SDS011;4281;45.772;12.852;2023-05-13T00:42:28;2.33;;;2.13;;
8488;SDS011;4281;45.772;12.852;2023-05-13T00:44:57;2.47;;;2.03;;
8488;SDS011;4281;45.772;12.852;2023-05-13T00:47:25;2.57;;;2.13;;
8488;SDS011;4281;45.772;12.852;2023-05-13T00:49:53;3.63;;;2.53;;
8488;SDS011;4281;45.772;12.852;2023-05-13T00:52:21;2.30;;;2.10;;
8488;SDS011;4281;45.772;12.852;2023-05-13T00:54:49;2.20;;;1.90;;
8488;SDS011;4281;45.772;12.852;2023-05-13T00:57:17;2.30;;;2.10;;
8488;SDS011;4281;45.772;12.852;2023-05-13T00:59:45;3.27;;;2.37;;
8488;SDS011;4281;45.772;12.852;2023-05-13T01:02:15;2.70;;;2.47;;
8488;SDS011;4281;45.772;12.852;2023-05-13T01:04:49;1.90;;;1.80;;
8488;SDS011;4281;45.772;12.852;2023-05-13T01:07:23;2.70;;;1.80;;
8488;SDS011;4281;45.772;12.852;2023-05-13T01:09:58;2.30;;;2.10;;
8488;SDS011;4281;45.772;12.852;2023-05-13T01:12:30;2.27;;;2.07;;
8488;SDS011;4281;45.772;12.852;2023-05-13T01:15:02;2.40;;;2.20;;
8488;SDS011;4281;45.772;12.852;2023-05-13T01:17:35;2.87;;;2.30;;
8488;SDS011;4281;45.772;12.852;2023-05-13T01:20:07;3.13;;;1.90;;
8488;SDS011;4281;45.772;12.852;2023-05-13T01:22:36;2.30;;;1.80;;
8488;SDS011;4281;45.772;12.852;2023-05-13T01:25:04;2.47;;;1.90;;
8488;SDS011;4281;45.772;12.852;2023-05-13T01:27:32;2.40;;;1.90;;
8488;SDS011;4281;45.772;12.852;2023-05-13T01:30:00;3.53;;;1.87;;
8488;SDS011;4281;45.772;12.852;2023-05-13T01:32:28;2.73;;;1.80;;
8488;SDS011;4281;45.772;12.852;2023-05-13T01:34:57;2.67;;;1.60;;
8488;SDS011;4281;45.772;12.852;2023-05-13T01:37:26;1.80;;;1.70;;
8488;SDS011;4281;45.772;12.852;2023-05-13T01:39:56;4.50;;;1.73;;
8488;SDS011;4281;45.772;12.852;2023-05-13T01:42:26;2.87;;;1.50;;
8488;SDS011;4281;45.772;12.852;2023-05-13T01:44:55;2.37;;;1.70;;
8488;SDS011;4281;45.772;12.852;2023-05-13T01:47:24;2.27;;;1.70;;
8488;SDS011;4281;45.772;12.852;2023-05-13T01:49:52;2.40;;;1.50;;
8488;SDS011;4281;45.772;12.852;2023-05-13T01:52:20;3.33;;;1.37;;
8488;SDS011;4281;45.772;12.852;2023-05-13T01:54:48;3.13;;;1.73;;
8488;SDS011;4281;45.772;12.852;2023-05-13T01:57:17;1.60;;;1.33;;
8488;SDS011;4281;45.772;12.852;2023-05-13T01:59:45;1.23;;;1.03;;
8488;SDS011;4281;45.772;12.852;2023-05-13T02:02:13;2.50;;;1.20;;
8488;SDS011;4281;45.772;12.852;2023-05-13T02:04:41;2.20;;;1.50;;
8488;SDS011;4281;45.772;12.852;2023-05-13T02:07:09;1.87;;;1.33;;
8488;SDS011;4281;45.772;12.852;2023-05-13T02:09:36;2.10;;;1.30;;
8488;SDS011;4281;45.772;12.852;2023-05-13T02:12:05;3.20;;;1.40;;
8488;SDS011;4281;45.772;12.852;2023-05-13T02:14:34;1.53;;;1.37;;
8488;SDS011;4281;45.772;12.852;2023-05-13T02:17:03;1.30;;;1.10;;
8488;SDS011;4281;45.772;12.852;2023-05-13T02:19:31;1.80;;;1.27;;
8488;SDS011;4281;45.772;12.852;2023-05-13T02:21:59;1.57;;;1.37;;
8488;SDS011;4281;45.772;12.852;2023-05-13T02:24:29;1.57;;;1.30;;
8488;SDS011;4281;45.772;12.852;2023-05-13T02:26:57;3.23;;;1.80;;
8488;SDS011;4281;45.772;12.852;2023-05-13T02:29:25;1.63;;;1.43;;
8488;SDS011;4281;45.772;12.852;2023-05-13T02:31:54;2.13;;;1.40;;
8488;SDS011;4281;45.772;12.852;2023-05-13T02:34:22;1.40;;;1.30;;
8488;SDS011;4281;45.772;12.852;2023-05-13T02:36:50;1.57;;;1.47;;
8488;SDS011;4281;45.772;12.852;2023-05-13T02:39:18;2.07;;;1.50;;
8488;SDS011;4281;45.772;12.852;2023-05-13T02:41:46;1.60;;;1.50;;
8488;SDS011;4281;45.772;12.852;2023-05-13T02:44:14;1.70;;;1.40;;
8488;SDS011;4281;45.772;12.852;2023-05-13T02:46:42;2.20;;;1.80;;
8488;SDS011;4281;45.772;12.852;2023-05-13T02:49:11;2.00;;;1.70;;
8488;SDS011;4281;45.772;12.852;2023-05-13T02:51:39;1.90;;;1.80;;
8488;SDS011;4281;45.772;12.852;2023-05-13T02:54:07;1.90;;;1.80;;
8488;SDS011;4281;45.772;12.852;2023-05-13T02:56:35;1.97;;;1.80;;
8488;SDS011;4281;45.772;12.852;2023-05-13T02:59:03;2.13;;;1.80;;
8488;SDS011;4281;45.772;12.852;2023-05-13T03:01:31;2.23;;;2.03;;
8488;SDS011;4281;45.772;12.852;2023-05-13T03:03:58;1.90;;;1.80;;
8488;SDS011;4281;45.772;12.852;2023-05-13T03:06:28;2.17;;;1.70;;
8488;SDS011;4281;45.772;12.852;2023-05-13T03:08:57;4.13;;;2.27;;
8488;SDS011;4281;45.772;12.852;2023-05-13T03:11:24;2.13;;;1.93;;
8488;SDS011;4281;45.772;12.852;2023-05-13T03:13:53;2.07;;;1.93;;
8488;SDS011;4281;45.772;12.852;2023-05-13T03:16:20;2.30;;;1.90;;
8488;SDS011;4281;45.772;12.852;2023-05-13T03:18:49;2.13;;;1.90;;
8488;SDS011;4281;45.772;12.852;2023-05-13T03:21:17;1.80;;;1.70;;
8488;SDS011;4281;45.772;12.852;2023-05-13T03:23:46;1.90;;;1.70;;
8488;SDS011;4281;45.772;12.852;2023-05-13T03:26:14;1.97;;;1.80;;
8488;SDS011;4281;45.772;12.852;2023-05-13T03:28:42;3.13;;;1.87;;
8488;SDS011;4281;45.772;12.852;2023-05-13T03:31:10;1.97;;;1.77;;
8488;SDS011;4281;45.772;12.852;2023-05-13T03:33:38;2.10;;;1.90;;
8488;SDS011;4281;45.772;12.852;2023-05-13T03:36:06;2.10;;;2.00;;
8488;SDS011;4281;45.772;12.852;2023-05-13T03:38:35;1.80;;;1.70;;
8488;SDS011;4281;45.772;12.852;2023-05-13T03:41:04;1.70;;;1.60;;
8488;SDS011;4281;45.772;12.852;2023-05-13T03:43:32;2.23;;;1.70;;
8488;SDS011;4281;45.772;12.852;2023-05-13T03:45:59;1.83;;;1.73;;
8488;SDS011;4281;45.772;12.852;2023-05-13T03:48:27;1.90;;;1.80;;
8488;SDS011;4281;45.772;12.852;2023-05-13T03:50:55;2.03;;;1.93;;
8488;SDS011;4281;45.772;12.852;2023-05-13T03:53:23;1.70;;;1.60;;
8488;SDS011;4281;45.772;12.852;2023-05-13T03:55:51;1.80;;;1.70;;
8488;SDS011;4281;45.772;12.852;2023-05-13T03:58:20;1.77;;;1.67;;
8488;SDS011;4281;45.772;12.852;2023-05-13T04:00:48;2.07;;;1.70;;
8488;SDS011;4281;45.772;12.852;2023-05-13T04:03:16;1.70;;;1.60;;
8488;SDS011;4281;45.772;12.852;2023-05-13T04:05:45;2.07;;;1.70;;
8488;SDS011;4281;45.772;12.852;2023-05-13T04:08:13;1.80;;;1.70;;
8488;SDS011;4281;45.772;12.852;2023-05-13T04:10:41;1.80;;;1.70;;
8488;SDS011;4281;45.772;12.852;2023-05-13T04:13:09;1.70;;;1.60;;
8488;SDS011;4281;45.772;12.852;2023-05-13T04:15:38;2.10;;;1.60;;
8488;SDS011;4281;45.772;12.852;2023-05-13T04:18:06;2.00;;;1.80;;
8488;SDS011;4281;45.772;12.852;2023-05-13T04:20:36;1.67;;;1.57;;
8488;SDS011;4281;45.772;12.852;2023-05-13T04:23:04;1.60;;;1.50;;
8488;SDS011;4281;45.772;12.852;2023-05-13T04:25:33;1.63;;;1.53;;
8488;SDS011;4281;45.772;12.852;2023-05-13T04:28:01;2.27;;;1.50;;
8488;SDS011;4281;45.772;12.852;2023-05-13T04:30:29;1.60;;;1.50;;
8488;SDS011;4281;45.772;12.852;2023-05-13T04:32:58;1.77;;;1.60;;
8488;SDS011;4281;45.772;12.852;2023-05-13T04:35:26;1.63;;;1.53;;
8488;SDS011;4281;45.772;12.852;2023-05-13T04:37:54;1.70;;;1.57;;
8488;SDS011;4281;45.772;12.852;2023-05-13T04:40:22;2.13;;;1.67;;
8488;SDS011;4281;45.772;12.852;2023-05-13T04:42:50;2.27;;;1.67;;
8488;SDS011;4281;45.772;12.852;2023-05-13T04:45:20;1.67;;;1.57;;
8488;SDS011;4281;45.772;12.852;2023-05-13T04:47:49;1.93;;;1.50;;
8488;SDS011;4281;45.772;12.852;2023-05-13T04:50:18;1.80;;;1.63;;
8488;SDS011;4281;45.772;12.852;2023-05-13T04:52:47;1.53;;;1.43;;
8488;SDS011;4281;45.772;12.852;2023-05-13T04:55:15;2.80;;;1.70;;
8488;SDS011;4281;45.772;12.852;2023-05-13T04:57:43;2.00;;;1.70;;
8488;SDS011;4281;45.772;12.852;2023-05-13T05:00:11;3.10;;;1.70;;
8488;SDS011;4281;45.772;12.852;2023-05-13T05:02:40;2.20;;;2.00;;
8488;SDS011;4281;45.772;12.852;2023-05-13T05:05:08;1.90;;;1.70;;
8488;SDS011;4281;45.772;12.852;2023-05-13T05:07:37;2.13;;;1.97;;
8488;SDS011;4281;45.772;12.852;2023-05-13T05:10:07;2.00;;;1.70;;
8488;SDS011;4281;45.772;12.852;2023-05-13T05:12:35;1.87;;;1.77;;
8488;SDS011;4281;45.772;12.852;2023-05-13T05:15:04;2.30;;;1.90;;
8488;SDS011;4281;45.772;12.852;2023-05-13T05:17:36;1.90;;;1.60;;
8488;SDS011;4281;45.772;12.852;2023-05-13T05:20:05;1.70;;;1.60;;
8488;SDS011;4281;45.772;12.852;2023-05-13T05:22:33;1.70;;;1.60;;
8488;SDS011;4281;45.772;12.852;2023-05-13T05:25:03;1.97;;;1.63;;
8488;SDS011;4281;45.772;12.852;2023-05-13T05:27:31;1.70;;;1.60;;
8488;SDS011;4281;45.772;12.852;2023-05-13T05:29:59;2.23;;;1.80;;
8488;SDS011;4281;45.772;12.852;2023-05-13T05:32:28;1.83;;;1.70;;
8488;SDS011;4281;45.772;12.852;2023-05-13T05:34:56;3.57;;;2.00;;
8488;SDS011;4281;45.772;12.852;2023-05-13T05:37:27;2.30;;;1.87;;
8488;SDS011;4281;45.772;12.852;2023-05-13T05:39:55;2.73;;;1.87;;
8488;SDS011;4281;45.772;12.852;2023-05-13T05:42:24;1.80;;;1.70;;
8488;SDS011;4281;45.772;12.852;2023-05-13T05:44:52;1.80;;;1.53;;
8488;SDS011;4281;45.772;12.852;2023-05-13T05:47:20;1.70;;;1.60;;
8488;SDS011;4281;45.772;12.852;2023-05-13T05:49:48;2.10;;;1.90;;
8488;SDS011;4281;45.772;12.852;2023-05-13T05:52:16;2.67;;;1.90;;
8488;SDS011;4281;45.772;12.852;2023-05-13T05:54:44;2.10;;;1.80;;
8488;SDS011;4281;45.772;12.852;2023-05-13T05:57:12;2.10;;;1.73;;
8488;SDS011;4281;45.772;12.852;2023-05-13T05:59:42;2.37;;;1.87;;
8488;SDS011;4281;45.772;12.852;2023-05-13T06:02:10;2.23;;;1.53;;
8488;SDS011;4281;45.772;12.852;2023-05-13T06:04:38;1.90;;;1.80;;
8488;SDS011;4281;45.772;12.852;2023-05-13T06:07:07;2.33;;;1.67;;
8488;SDS011;4281;45.772;12.852;2023-05-13T06:09:35;1.73;;;1.60;;
8488;SDS011;4281;45.772;12.852;2023-05-13T06:12:03;3.37;;;1.60;;
8488;SDS011;4281;45.772;12.852;2023-05-13T06:14:31;2.00;;;1.50;;
8488;SDS011;4281;45.772;12.852;2023-05-13T06:17:00;1.50;;;1.40;;
8488;SDS011;4281;45.772;12.852;2023-05-13T06:19:28;1.73;;;1.63;;
8488;SDS011;4281;45.772;12.852;2023-05-13T06:21:56;1.50;;;1.40;;
8488;SDS011;4281;45.772;12.852;2023-05-13T06:24:26;3.17;;;1.70;;
8488;SDS011;4281;45.772;12.852;2023-05-13T06:26:53;1.63;;;1.53;;
8488;SDS011;4281;45.772;12.852;2023-05-13T06:29:21;2.37;;;1.40;;
8488;SDS011;4281;45.772;12.852;2023-05-13T06:31:49;1.67;;;1.57;;
8488;SDS011;4281;45.772;12.852;2023-05-13T06:34:18;1.83;;;1.73;;
8488;SDS011;4281;45.772;12.852;2023-05-13T06:36:46;2.80;;;1.70;;
8488;SDS011;4281;45.772;12.852;2023-05-13T06:39:14;1.63;;;1.40;;
8488;SDS011;4281;45.772;12.852;2023-05-13T06:41:42;1.50;;;1.40;;
8488;SDS011;4281;45.772;12.852;2023-05-13T06:44:10;1.57;;;1.23;;
8488;SDS011;4281;45.772;12.852;2023-05-13T06:46:38;2.00;;;1.53;;
8488;SDS011;4281;45.772;12.852;2023-05-13T06:49:06;2.97;;;1.73;;
8488;SDS011;4281;45.772;12.852;2023-05-13T06:51:35;2.00;;;1.17;;
8488;SDS011;4281;45.772;12.852;2023-05-13T06:54:03;1.50;;;1.30;;
8488;SDS011;4281;45.772;12.852;2023-05-13T06:56:31;1.93;;;1.47;;
8488;SDS011;4281;45.772;12.852;2023-05-13T06:58:59;3.57;;;1.40;;
8488;SDS011;4281;45.772;12.852;2023-05-13T07:01:27;1.70;;;1.40;;
8488;SDS011;4281;45.772;12.852;2023-05-13T07:03:56;1.93;;;1.40;;
8488;SDS011;4281;45.772;12.852;2023-05-13T07:06:24;1.40;;;1.30;;
8488;SDS011;4281;45.772;12.852;2023-05-13T07:08:53;2.20;;;1.53;;
8488;SDS011;4281;45.772;12.852;2023-05-13T07:11:21;1.83;;;1.50;;
8488;SDS011;4281;45.772;12.852;2023-05-13T07:13:49;2.30;;;1.40;;
8488;SDS011;4281;45.772;12.852;2023-05-13T07:16:17;1.70;;;1.60;;
8488;SDS011;4281;45.772;12.852;2023-05-13T07:18:45;1.83;;;1.17;;
8488;SDS011;4281;45.772;12.852;2023-05-13T07:21:13;1.50;;;1.40;;
8488;SDS011;4281;45.772;12.852;2023-05-13T07:23:41;1.40;;;1.30;;
8488;SDS011;4281;45.772;12.852;2023-05-13T07:26:11;2.80;;;1.37;;
8488;SDS011;4281;45.772;12.852;2023-05-13T07:28:39;2.27;;;1.33;;
8488;SDS011;4281;45.772;12.852;2023-05-13T07:31:07;1.57;;;1.40;;
8488;SDS011;4281;45.772;12.852;2023-05-13T07:33:35;1.50;;;1.40;;
8488;SDS011;4281;45.772;12.852;2023-05-13T07:36:03;1.50;;;1.40;;
8488;SDS011;4281;45.772;12.852;2023-05-13T07:38:31;2.00;;;1.50;;
8488;SDS011;4281;45.772;12.852;2023-05-13T07:40:59;1.93;;;1.50;;
8488;SDS011;4281;45.772;12.852;2023-05-13T07:43:28;1.70;;;1.57;;
8488;SDS011;4281;45.772;12.852;2023-05-13T07:46:00;2.57;;;1.37;;
8488;SDS011;4281;45.772;12.852;2023-05-13T07:48:28;2.57;;;1.40;;
8488;SDS011;4281;45.772;12.852;2023-05-13T07:50:56;1.20;;;1.10;;
8488;SDS011;4281;45.772;12.852;2023-05-13T07:53:24;3.70;;;1.40;;
8488;SDS011;4281;45.772;12.852;2023-05-13T07:55:52;1.40;;;1.30;;
8488;SDS011;4281;45.772;12.852;2023-05-13T07:58:20;1.20;;;1.10;;
8488;SDS011;4281;45.772;12.852;2023-05-13T08:00:49;1.37;;;1.20;;
8488;SDS011;4281;45.772;12.852;2023-05-13T08:03:17;1.53;;;1.30;;
8488;SDS011;4281;45.772;12.852;2023-05-13T08:05:45;2.10;;;1.27;;
8488;SDS011;4281;45.772;12.852;2023-05-13T08:08:13;1.67;;;1.20;;
8488;SDS011;4281;45.772;12.852;2023-05-13T08:10:41;1.30;;;1.10;;
8488;SDS011;4281;45.772;12.852;2023-05-13T08:13:09;1.57;;;1.27;;
8488;SDS011;4281;45.772;12.852;2023-05-13T08:15:37;1.63;;;1.30;;
8488;SDS011;4281;45.772;12.852;2023-05-13T08:18:06;1.43;;;1.30;;
8488;SDS011;4281;45.772;12.852;2023-05-13T08:20:34;1.40;;;1.30;;
8488;SDS011;4281;45.772;12.852;2023-05-13T08:23:02;1.27;;;1.17;;
8488;SDS011;4281;45.772;12.852;2023-05-13T08:25:31;1.67;;;1.10;;
8488;SDS011;4281;45.772;12.852;2023-05-13T08:27:59;1.20;;;1.10;;
8488;SDS011;4281;45.772;12.852;2023-05-13T08:30:27;1.30;;;1.20;;
8488;SDS011;4281;45.772;12.852;2023-05-13T08:32:54;1.17;;;0.97;;
8488;SDS011;4281;45.772;12.852;2023-05-13T08:35:24;1.03;;;0.93;;
8488;SDS011;4281;45.772;12.852;2023-05-13T08:37:52;1.40;;;1.10;;
8488;SDS011;4281;45.772;12.852;2023-05-13T08:40:20;1.43;;;1.10;;
8488;SDS011;4281;45.772;12.852;2023-05-13T08:42:48;1.03;;;0.93;;
8488;SDS011;4281;45.772;12.852;2023-05-13T08:45:19;1.33;;;1.00;;
8488;SDS011;4281;45.772;12.852;2023-05-13T08:47:49;1.10;;;1.00;;
8488;SDS011;4281;45.772;12.852;2023-05-13T08:50:19;1.57;;;1.17;;
8488;SDS011;4281;45.772;12.852;2023-05-13T08:52:50;1.13;;;1.03;;
8488;SDS011;4281;45.772;12.852;2023-05-13T08:55:19;1.30;;;1.20;;
8488;SDS011;4281;45.772;12.852;2023-05-13T08:57:48;1.80;;;1.33;;
8488;SDS011;4281;45.772;12.852;2023-05-13T09:00:18;1.30;;;1.13;;
8488;SDS011;4281;45.772;12.852;2023-05-13T09:02:47;1.57;;;1.17;;
8488;SDS011;4281;45.772;12.852;2023-05-13T09:05:16;1.30;;;1.20;;
8488;SDS011;4281;45.772;12.852;2023-05-13T09:07:44;1.67;;;1.30;;
8488;SDS011;4281;45.772;12.852;2023-05-13T09:10:13;1.30;;;1.20;;
8488;SDS011;4281;45.772;12.852;2023-05-13T09:12:45;1.37;;;1.27;;
8488;SDS011;4281;45.772;12.852;2023-05-13T09:15:14;1.00;;;1.00;;
8488;SDS011;4281;45.772;12.852;2023-05-13T09:17:46;1.37;;;1.20;;
8488;SDS011;4281;45.772;12.852;2023-05-13T09:20:17;1.30;;;1.20;;
8488;SDS011;4281;45.772;12.852;2023-05-13T09:22:46;1.53;;;1.20;;
8488;SDS011;4281;45.772;12.852;2023-05-13T09:25:15;1.40;;;1.30;;
8488;SDS011;4281;45.772;12.852;2023-05-13T09:27:45;1.40;;;1.30;;
8488;SDS011;4281;45.772;12.852;2023-05-13T09:30:14;1.47;;;1.37;;
8488;SDS011;4281;45.772;12.852;2023-05-13T09:32:42;2.00;;;1.40;;
8488;SDS011;4281;45.772;12.852;2023-05-13T09:35:11;1.67;;;1.40;;
8488;SDS011;4281;45.772;12.852;2023-05-13T09:37:46;1.30;;;1.20;;
8488;SDS011;4281;45.772;12.852;2023-05-13T09:40:16;1.30;;;1.20;;
8488;SDS011;4281;45.772;12.852;2023-05-13T09:42:44;1.40;;;1.30;;
8488;SDS011;4281;45.772;12.852;2023-05-13T09:45:13;1.60;;;1.50;;
8488;SDS011;4281;45.772;12.852;2023-05-13T09:47:42;1.40;;;1.30;;
8488;SDS011;4281;45.772;12.852;2023-05-13T09:50:10;1.53;;;1.43;;
8488;SDS011;4281;45.772;12.852;2023-05-13T09:52:38;1.60;;;1.50;;
8488;SDS011;4281;45.772;12.852;2023-05-13T09:55:07;1.30;;;1.20;;
8488;SDS011;4281;45.772;12.852;2023-05-13T09:57:37;1.40;;;1.30;;
8488;SDS011;4281;45.772;12.852;2023-05-13T10:00:06;1.97;;;1.07;;
8488;SDS011;4281;45.772;12.852;2023-05-13T10:02:54;1.20;;;1.07;;
8488;SDS011;4281;45.772;12.852;2023-05-13T10:05:22;1.47;;;1.30;;
8488;SDS011;4281;45.772;12.852;2023-05-13T10:07:51;1.93;;;1.40;;
8488;SDS011;4281;45.772;12.852;2023-05-13T10:10:19;1.40;;;1.30;;
8488;SDS011;4281;45.772;12.852;2023-05-13T10:12:49;1.23;;;1.13;;
8488;SDS011;4281;45.772;12.852;2023-05-13T10:15:17;1.20;;;1.10;;
8488;SDS011;4281;45.772;12.852;2023-05-13T10:17:46;1.40;;;1.30;;
8488;SDS011;4281;45.772;12.852;2023-05-13T10:20:14;1.40;;;1.30;;
8488;SDS011;4281;45.772;12.852;2023-05-13T10:22:43;1.20;;;1.10;;
8488;SDS011;4281;45.772;12.852;2023-05-13T10:25:11;1.37;;;1.27;;
8488;SDS011;4281;45.772;12.852;2023-05-13T10:27:39;1.50;;;1.40;;
8488;SDS011;4281;45.772;12.852;2023-05-13T10:30:10;1.33;;;1.23;;
8488;SDS011;4281;45.772;12.852;2023-05-13T10:32:40;1.30;;;1.20;;
8488;SDS011;4281;45.772;12.852;2023-05-13T10:35:09;1.30;;;1.20;;
8488;SDS011;4281;45.772;12.852;2023-05-13T10:40:30;1.30;;;1.10;;
8488;SDS011;4281;45.772;12.852;2023-05-13T10:43:08;1.23;;;1.13;;
8488;SDS011;4281;45.772;12.852;2023-05-13T10:45:40;1.23;;;1.13;;
8488;SDS011;4281;45.772;12.852;2023-05-13T10:48:11;1.57;;;1.30;;
8488;SDS011;4281;45.772;12.852;2023-05-13T10:50:47;1.20;;;1.10;;
8488;SDS011;4281;45.772;12.852;2023-05-13T10:53:19;1.27;;;1.17;;
8488;SDS011;4281;45.772;12.852;2023-05-13T10:55:53;1.20;;;1.10;;
8488;SDS011;4281;45.772;12.852;2023-05-13T10:58:27;1.30;;;1.20;;
8488;SDS011;4281;45.772;12.852;2023-05-13T11:03:52;1.13;;;1.03;;
8488;SDS011;4281;45.772;12.852;2023-05-13T11:06:22;1.40;;;1.30;;
8488;SDS011;4281;45.772;12.852;2023-05-13T11:08:52;1.20;;;1.10;;
8488;SDS011;4281;45.772;12.852;2023-05-13T11:11:25;1.63;;;1.20;;
8488;SDS011;4281;45.772;12.852;2023-05-13T11:14:01;1.63;;;1.40;;
8488;SDS011;4281;45.772;12.852;2023-05-13T11:16:34;1.73;;;1.00;;
8488;SDS011;4281;45.772;12.852;2023-05-13T11:19:07;1.03;;;0.97;;
8488;SDS011;4281;45.772;12.852;2023-05-13T11:21:36;0.97;;;0.93;;
8488;SDS011;4281;45.772;12.852;2023-05-13T11:24:06;1.20;;;1.10;;
8488;SDS011;4281;45.772;12.852;2023-05-13T11:26:44;1.20;;;1.10;;
8488;SDS011;4281;45.772;12.852;2023-05-13T11:29:12;1.00;;;1.00;;
8488;SDS011;4281;45.772;12.852;2023-05-13T11:31:41;1.10;;;1.00;;
8488;SDS011;4281;45.772;12.852;2023-05-13T11:34:13;1.30;;;1.10;;
8488;SDS011;4281;45.772;12.852;2023-05-13T11:36:43;1.83;;;1.10;;
8488;SDS011;4281;45.772;12.852;2023-05-13T11:39:13;1.10;;;1.00;;
8488;SDS011;4281;45.772;12.852;2023-05-13T11:41:43;1.00;;;0.90;;
8488;SDS011;4281;45.772;12.852;2023-05-13T11:44:12;1.07;;;0.97;;
8488;SDS011;4281;45.772;12.852;2023-05-13T11:46:53;1.10;;;1.00;;
8488;SDS011;4281;45.772;12.852;2023-05-13T11:49:31;1.20;;;1.10;;
8488;SDS011;4281;45.772;12.852;2023-05-13T11:51:59;0.90;;;0.90;;
8488;SDS011;4281;45.772;12.852;2023-05-13T11:54:27;1.17;;;1.00;;
8488;SDS011;4281;45.772;12.852;2023-05-13T11:56:55;1.10;;;1.00;;
8488;SDS011;4281;45.772;12.852;2023-05-13T11:59:23;0.80;;;0.80;;
8488;SDS011;4281;45.772;12.852;2023-05-13T12:01:58;1.43;;;1.00;;
8488;SDS011;4281;45.772;12.852;2023-05-13T12:04:28;1.33;;;0.93;;
8488;SDS011;4281;45.772;12.852;2023-05-13T12:06:57;0.97;;;0.80;;
8488;SDS011;4281;45.772;12.852;2023-05-13T12:09:25;1.47;;;1.13;;
8488;SDS011;4281;45.772;12.852;2023-05-13T12:11:53;1.00;;;0.90;;
8488;SDS011;4281;45.772;12.852;2023-05-13T12:14:21;1.17;;;0.90;;
8488;SDS011;4281;45.772;12.852;2023-05-13T12:16:52;1.27;;;1.00;;
8488;SDS011;4281;45.772;12.852;2023-05-13T12:19:20;0.97;;;0.90;;
8488;SDS011;4281;45.772;12.852;2023-05-13T12:21:48;1.10;;;1.00;;
8488;SDS011;4281;45.772;12.852;2023-05-13T12:24:18;1.17;;;0.97;;
8488;SDS011;4281;45.772;12.852;2023-05-13T12:26:47;1.30;;;0.90;;
8488;SDS011;4281;45.772;12.852;2023-05-13T12:29:15;1.40;;;0.80;;
8488;SDS011;4281;45.772;12.852;2023-05-13T12:32:03;1.20;;;0.80;;
8488;SDS011;4281;45.772;12.852;2023-05-13T12:34:32;1.00;;;0.90;;
8488;SDS011;4281;45.772;12.852;2023-05-13T12:37:10;1.20;;;0.90;;
8488;SDS011;4281;45.772;12.852;2023-05-13T12:39:40;1.17;;;0.87;;
8488;SDS011;4281;45.772;12.852;2023-05-13T12:42:14;0.80;;;0.70;;
8488;SDS011;4281;45.772;12.852;2023-05-13T12:44:43;1.63;;;1.10;;
8488;SDS011;4281;45.772;12.852;2023-05-13T12:47:12;2.17;;;1.00;;
8488;SDS011;4281;45.772;12.852;2023-05-13T12:49:50;1.07;;;0.90;;
8488;SDS011;4281;45.772;12.852;2023-05-13T12:52:18;1.40;;;0.87;;
8488;SDS011;4281;45.772;12.852;2023-05-13T12:54:48;0.80;;;0.80;;
8488;SDS011;4281;45.772;12.852;2023-05-13T12:57:16;1.10;;;1.00;;
8488;SDS011;4281;45.772;12.852;2023-05-13T12:59:45;1.10;;;1.00;;
8488;SDS011;4281;45.772;12.852;2023-05-13T13:02:13;1.43;;;0.90;;
8488;SDS011;4281;45.772;12.852;2023-05-13T13:04:41;0.97;;;0.87;;
8488;SDS011;4281;45.772;12.852;2023-05-13T13:07:09;1.27;;;1.00;;
8488;SDS011;4281;45.772;12.852;2023-05-13T13:09:40;1.03;;;0.80;;
8488;SDS011;4281;45.772;12.852;2023-05-13T13:12:10;1.60;;;1.10;;
8488;SDS011;4281;45.772;12.852;2023-05-13T13:14:39;1.60;;;1.00;;
8488;SDS011;4281;45.772;12.852;2023-05-13T13:17:07;1.00;;;0.80;;
8488;SDS011;4281;45.772;12.852;2023-05-13T13:19:36;1.03;;;0.93;;
8488;SDS011;4281;45.772;12.852;2023-05-13T13:22:04;3.17;;;1.00;;
8488;SDS011;4281;45.772;12.852;2023-05-13T13:24:32;1.10;;;0.80;;
8488;SDS011;4281;45.772;12.852;2023-05-13T13:27:00;1.37;;;0.90;;
8488;SDS011;4281;45.772;12.852;2023-05-13T13:29:30;2.03;;;0.90;;
8488;SDS011;4281;45.772;12.852;2023-05-13T13:31:57;1.27;;;0.87;;
8488;SDS011;4281;45.772;12.852;2023-05-13T13:34:25;0.80;;;0.80;;
8488;SDS011;4281;45.772;12.852;2023-05-13T13:36:53;2.40;;;0.97;;
8488;SDS011;4281;45.772;12.852;2023-05-13T13:39:21;1.10;;;1.00;;
8488;SDS011;4281;45.772;12.852;2023-05-13T13:41:49;1.30;;;0.80;;
8488;SDS011;4281;45.772;12.852;2023-05-13T13:44:17;1.37;;;1.10;;
8488;SDS011;4281;45.772;12.852;2023-05-13T13:46:46;1.90;;;1.27;;
8488;SDS011;4281;45.772;12.852;2023-05-13T13:49:14;1.00;;;0.90;;
8488;SDS011;4281;45.772;12.852;2023-05-13T13:51:49;1.70;;;0.90;;
8488;SDS011;4281;45.772;12.852;2023-05-13T13:54:17;1.87;;;1.10;;
8488;SDS011;4281;45.772;12.852;2023-05-13T13:56:45;1.37;;;0.80;;
8488;SDS011;4281;45.772;12.852;2023-05-13T13:59:14;1.03;;;0.93;;
8488;SDS011;4281;45.772;12.852;2023-05-13T14:01:44;1.27;;;0.80;;
8488;SDS011;4281;45.772;12.852;2023-05-13T14:04:14;1.47;;;0.97;;
8488;SDS011;4281;45.772;12.852;2023-05-13T14:06:45;0.83;;;0.73;;
8488;SDS011;4281;45.772;12.852;2023-05-13T14:09:13;1.20;;;0.90;;
8488;SDS011;4281;45.772;12.852;2023-05-13T14:11:41;1.40;;;0.80;;
8488;SDS011;4281;45.772;12.852;2023-05-13T14:14:09;2.20;;;0.90;;
8488;SDS011;4281;45.772;12.852;2023-05-13T14:16:36;0.73;;;0.73;;
8488;SDS011;4281;45.772;12.852;2023-05-13T14:19:04;1.40;;;0.90;;
8488;SDS011;4281;45.772;12.852;2023-05-13T14:21:34;1.07;;;0.80;;
8488;SDS011;4281;45.772;12.852;2023-05-13T14:24:01;1.03;;;0.83;;
8488;SDS011;4281;45.772;12.852;2023-05-13T14:26:29;0.70;;;0.70;;
8488;SDS011;4281;45.772;12.852;2023-05-13T14:28:57;1.17;;;0.90;;
8488;SDS011;4281;45.772;12.852;2023-05-13T14:31:25;0.70;;;0.60;;
8488;SDS011;4281;45.772;12.852;2023-05-13T14:33:53;0.60;;;0.60;;
8488;SDS011;4281;45.772;12.852;2023-05-13T14:36:21;1.17;;;0.90;;
8488;SDS011;4281;45.772;12.852;2023-05-13T14:38:53;1.93;;;0.67;;
8488;SDS011;4281;45.772;12.852;2023-05-13T14:41:21;1.23;;;0.70;;
8488;SDS011;4281;45.772;12.852;2023-05-13T14:43:49;1.90;;;0.83;;
8488;SDS011;4281;45.772;12.852;2023-05-13T14:46:17;0.70;;;0.70;;
8488;SDS011;4281;45.772;12.852;2023-05-13T14:48:46;0.90;;;0.70;;
8488;SDS011;4281;45.772;12.852;2023-05-13T14:51:14;1.67;;;0.73;;
8488;SDS011;4281;45.772;12.852;2023-05-13T14:53:43;1.33;;;0.80;;
8488;SDS011;4281;45.772;12.852;2023-05-13T14:56:12;0.67;;;0.63;;
8488;SDS011;4281;45.772;12.852;2023-05-13T14:58:40;0.70;;;0.60;;
8488;SDS011;4281;45.772;12.852;2023-05-13T15:01:07;0.70;;;0.67;;
8488;SDS011;4281;45.772;12.852;2023-05-13T15:03:36;0.97;;;0.80;;
8488;SDS011;4281;45.772;12.852;2023-05-13T15:06:04;1.00;;;0.83;;
8488;SDS011;4281;45.772;12.852;2023-05-13T15:08:32;1.37;;;0.70;;
8488;SDS011;4281;45.772;12.852;2023-05-13T15:11:00;0.60;;;0.60;;
8488;SDS011;4281;45.772;12.852;2023-05-13T15:13:30;0.93;;;0.80;;
8488;SDS011;4281;45.772;12.852;2023-05-13T15:16:00;1.30;;;0.70;;